Willow, AK

10:28 AM AKDT on July 03, 2015 (GMT -0800)
APRSWXNET | | Change Station
CLOSE
Current Station
Personal Weather Station
Location: Willow, AK
Elevation: 232 ft
Nearby Weather Stations

Elev 232 ft 61.73 °N, 150.07 °W | Updated 25 minutes ago

Scattered Clouds
Scattered Clouds
57 °F
Feels Like 57 °F
N
1
Wind Variable Wind from NW
Gusts 5.0 mph

Today
High -- | Low -- °F
--% Chance of Precip.
Yesterday
High -- | Low -- °F
Precip. -- in
4:23 AM 11:44 PM
Waning Gibbous, 96% visible
Pressure 30.17 in
Visibility 10.0 miles
Clouds Scattered Clouds 8000 ft
Dew Point 51 °F
Humidity 80%
Rainfall in
Snow Depth Not available.
UV 3 out of 12
Pollen Not available.
Air Quality Not available.
Flu Activity Not available.
METAR PAWS 031816Z AUTO 11003KT 10SM SCT080 17/08 A3017 RMK AO1

More Conditions Fewer Conditions

Pressure 30.17 in
Visibility 10.0 miles
Clouds Scattered Clouds 8000 ft
Dew Point 51 °F
Humidity 80%
Rainfall in
Snow Depth Not available.
UV 3 out of 12
Pollen Not available.
Air Quality Not available.
Flu Activity Not available.
METAR PAWS 031816Z AUTO 11003KT 10SM SCT080 17/08 A3017 RMK AO1

More Conditions Fewer Conditions

10-Day Weather Forecast

×

Almanac

Astronomy

Jul. 03, 2015 Rise Set
Actual Time
Civil Twilight
Nautical Twilight
Astronomical Twilight
Moon
Length of Visible Light
Length of Day
Tomorrow will be .
, % of the Moon is Illuminated

Today's Extremes

State Highs State Lows

Community

WunderPhotos

Upload Photos

1,834,736 photos uploaded!

WunderBlogs® & News

Nearby

Air Quality

  Air Quality AQ Index Pollutant
Not available.

Snow Depth

Station Depth Elevation

Earthquake Activity

City Distance Mag. Time & Date
Minimum magnitude displayed is 2.5.

Coastal Water Temperatures

Place Temperature

Stations

Nearby Weather Stations

Station Location Temp. Windchill Dew Point Humidity Wind Precip. Elev Updated Type